sensor_id;sensor_type;location;lat;lon;timestamp;P1;durP1;ratioP1;P2;durP2;ratioP2
66751;SDS011;53663;42.676;23.238;2023-07-29T00:00:21;6.50;;;2.33;;
66751;SDS011;53663;42.676;23.238;2023-07-29T00:02:46;13.82;;;2.85;;
66751;SDS011;53663;42.676;23.238;2023-07-29T00:05:12;9.90;;;2.83;;
66751;SDS011;53663;42.676;23.238;2023-07-29T00:07:37;3.97;;;2.35;;
66751;SDS011;53663;42.676;23.238;2023-07-29T00:10:03;7.80;;;2.63;;
66751;SDS011;53663;42.676;23.238;2023-07-29T00:12:29;5.57;;;2.75;;
66751;SDS011;53663;42.676;23.238;2023-07-29T00:14:54;5.70;;;2.70;;
66751;SDS011;53663;42.676;23.238;2023-07-29T00:17:20;16.25;;;3.00;;
66751;SDS011;53663;42.676;23.238;2023-07-29T00:19:46;8.07;;;2.55;;
66751;SDS011;53663;42.676;23.238;2023-07-29T00:22:12;4.03;;;2.65;;
66751;SDS011;53663;42.676;23.238;2023-07-29T00:24:39;7.38;;;2.80;;
66751;SDS011;53663;42.676;23.238;2023-07-29T00:27:05;11.38;;;3.00;;
66751;SDS011;53663;42.676;23.238;2023-07-29T00:29:30;11.27;;;2.95;;
66751;SDS011;53663;42.676;23.238;2023-07-29T00:31:56;5.88;;;3.25;;
66751;SDS011;53663;42.676;23.238;2023-07-29T00:34:21;6.20;;;2.85;;
66751;SDS011;53663;42.676;23.238;2023-07-29T00:36:47;4.65;;;2.60;;
66751;SDS011;53663;42.676;23.238;2023-07-29T00:39:12;4.68;;;2.58;;
66751;SDS011;53663;42.676;23.238;2023-07-29T00:41:38;8.20;;;2.92;;
66751;SDS011;53663;42.676;23.238;2023-07-29T00:44:04;8.93;;;2.70;;
66751;SDS011;53663;42.676;23.238;2023-07-29T00:46:30;4.15;;;2.50;;
66751;SDS011;53663;42.676;23.238;2023-07-29T00:48:59;3.85;;;2.75;;
66751;SDS011;53663;42.676;23.238;2023-07-29T00:51:25;4.63;;;2.50;;
66751;SDS011;53663;42.676;23.238;2023-07-29T00:53:51;3.25;;;2.42;;
66751;SDS011;53663;42.676;23.238;2023-07-29T00:56:16;5.25;;;2.60;;
66751;SDS011;53663;42.676;23.238;2023-07-29T00:58:42;8.27;;;3.30;;
66751;SDS011;53663;42.676;23.238;2023-07-29T01:01:08;4.43;;;3.30;;
66751;SDS011;53663;42.676;23.238;2023-07-29T01:03:34;5.60;;;3.20;;
66751;SDS011;53663;42.676;23.238;2023-07-29T01:06:17;6.43;;;2.90;;
66751;SDS011;53663;42.676;23.238;2023-07-29T01:08:55;5.88;;;3.33;;
66751;SDS011;53663;42.676;23.238;2023-07-29T01:14:36;7.53;;;2.80;;
66751;SDS011;53663;42.676;23.238;2023-07-29T01:17:03;4.35;;;2.78;;
66751;SDS011;53663;42.676;23.238;2023-07-29T01:22:24;4.38;;;2.80;;
66751;SDS011;53663;42.676;23.238;2023-07-29T01:24:50;4.53;;;2.72;;
66751;SDS011;53663;42.676;23.238;2023-07-29T01:27:16;6.10;;;3.22;;
66751;SDS011;53663;42.676;23.238;2023-07-29T01:29:41;6.55;;;3.08;;
66751;SDS011;53663;42.676;23.238;2023-07-29T01:32:10;4.60;;;2.90;;
66751;SDS011;53663;42.676;23.238;2023-07-29T01:34:43;4.20;;;2.70;;
66751;SDS011;53663;42.676;23.238;2023-07-29T01:37:15;6.28;;;3.33;;
66751;SDS011;53663;42.676;23.238;2023-07-29T01:39:46;4.32;;;3.00;;
66751;SDS011;53663;42.676;23.238;2023-07-29T01:42:14;9.13;;;3.10;;
66751;SDS011;53663;42.676;23.238;2023-07-29T01:44:40;6.68;;;2.92;;
66751;SDS011;53663;42.676;23.238;2023-07-29T01:47:07;5.00;;;2.88;;
66751;SDS011;53663;42.676;23.238;2023-07-29T01:49:33;3.33;;;2.30;;
66751;SDS011;53663;42.676;23.238;2023-07-29T01:51:59;5.65;;;2.80;;
66751;SDS011;53663;42.676;23.238;2023-07-29T01:54:25;7.80;;;3.20;;
66751;SDS011;53663;42.676;23.238;2023-07-29T01:56:50;6.93;;;3.10;;
66751;SDS011;53663;42.676;23.238;2023-07-29T01:59:16;8.07;;;2.78;;
66751;SDS011;53663;42.676;23.238;2023-07-29T02:01:42;5.40;;;3.05;;
66751;SDS011;53663;42.676;23.238;2023-07-29T02:04:08;8.55;;;3.05;;
66751;SDS011;53663;42.676;23.238;2023-07-29T02:06:33;6.55;;;3.30;;
66751;SDS011;53663;42.676;23.238;2023-07-29T02:08:59;9.00;;;3.28;;
66751;SDS011;53663;42.676;23.238;2023-07-29T02:11:25;8.13;;;2.92;;
66751;SDS011;53663;42.676;23.238;2023-07-29T02:13:53;6.00;;;2.90;;
66751;SDS011;53663;42.676;23.238;2023-07-29T02:16:19;9.60;;;3.30;;
66751;SDS011;53663;42.676;23.238;2023-07-29T02:18:45;6.05;;;3.25;;
66751;SDS011;53663;42.676;23.238;2023-07-29T02:21:11;4.20;;;3.20;;
66751;SDS011;53663;42.676;23.238;2023-07-29T02:23:36;5.88;;;2.92;;
66751;SDS011;53663;42.676;23.238;2023-07-29T02:26:02;4.18;;;2.90;;
66751;SDS011;53663;42.676;23.238;2023-07-29T02:28:28;10.52;;;3.40;;
66751;SDS011;53663;42.676;23.238;2023-07-29T02:31:16;10.48;;;3.03;;
66751;SDS011;53663;42.676;23.238;2023-07-29T02:33:43;6.80;;;3.10;;
66751;SDS011;53663;42.676;23.238;2023-07-29T02:36:10;4.75;;;3.10;;
66751;SDS011;53663;42.676;23.238;2023-07-29T02:38:36;5.30;;;3.22;;
66751;SDS011;53663;42.676;23.238;2023-07-29T02:41:02;5.50;;;3.22;;
66751;SDS011;53663;42.676;23.238;2023-07-29T02:43:27;5.93;;;3.08;;
66751;SDS011;53663;42.676;23.238;2023-07-29T02:45:53;10.20;;;3.28;;
66751;SDS011;53663;42.676;23.238;2023-07-29T02:48:18;6.45;;;3.35;;
66751;SDS011;53663;42.676;23.238;2023-07-29T02:50:44;6.03;;;3.08;;
66751;SDS011;53663;42.676;23.238;2023-07-29T02:53:10;5.57;;;3.47;;
66751;SDS011;53663;42.676;23.238;2023-07-29T02:55:35;7.13;;;2.97;;
66751;SDS011;53663;42.676;23.238;2023-07-29T02:58:04;6.88;;;3.20;;
66751;SDS011;53663;42.676;23.238;2023-07-29T03:00:31;5.82;;;2.92;;
66751;SDS011;53663;42.676;23.238;2023-07-29T03:02:58;5.97;;;3.03;;
66751;SDS011;53663;42.676;23.238;2023-07-29T03:05:24;7.65;;;3.38;;
66751;SDS011;53663;42.676;23.238;2023-07-29T03:07:49;5.40;;;3.10;;
66751;SDS011;53663;42.676;23.238;2023-07-29T03:10:15;7.55;;;3.28;;
66751;SDS011;53663;42.676;23.238;2023-07-29T03:12:41;10.30;;;3.30;;
66751;SDS011;53663;42.676;23.238;2023-07-29T03:15:06;5.85;;;3.20;;
66751;SDS011;53663;42.676;23.238;2023-07-29T03:17:32;4.90;;;3.13;;
66751;SDS011;53663;42.676;23.238;2023-07-29T03:19:58;6.53;;;3.38;;
66751;SDS011;53663;42.676;23.238;2023-07-29T03:22:23;7.57;;;3.30;;
66751;SDS011;53663;42.676;23.238;2023-07-29T03:24:51;11.43;;;3.65;;
66751;SDS011;53663;42.676;23.238;2023-07-29T03:27:17;9.20;;;3.53;;
66751;SDS011;53663;42.676;23.238;2023-07-29T03:29:42;9.23;;;3.50;;
66751;SDS011;53663;42.676;23.238;2023-07-29T03:32:08;4.88;;;2.95;;
66751;SDS011;53663;42.676;23.238;2023-07-29T03:34:34;7.57;;;3.10;;
66751;SDS011;53663;42.676;23.238;2023-07-29T03:37:00;7.22;;;3.10;;
66751;SDS011;53663;42.676;23.238;2023-07-29T03:39:26;7.15;;;3.35;;
66751;SDS011;53663;42.676;23.238;2023-07-29T03:41:52;7.80;;;3.50;;
66751;SDS011;53663;42.676;23.238;2023-07-29T03:44:18;8.48;;;3.38;;
66751;SDS011;53663;42.676;23.238;2023-07-29T03:46:44;7.38;;;3.50;;
66751;SDS011;53663;42.676;23.238;2023-07-29T03:49:10;5.65;;;3.47;;
66751;SDS011;53663;42.676;23.238;2023-07-29T03:51:36;7.95;;;4.00;;
66751;SDS011;53663;42.676;23.238;2023-07-29T03:54:01;8.38;;;4.22;;
66751;SDS011;53663;42.676;23.238;2023-07-29T03:56:27;12.30;;;4.55;;
66751;SDS011;53663;42.676;23.238;2023-07-29T03:58:53;12.63;;;3.85;;
66751;SDS011;53663;42.676;23.238;2023-07-29T04:01:18;17.45;;;6.30;;
66751;SDS011;53663;42.676;23.238;2023-07-29T04:03:47;14.52;;;5.93;;
66751;SDS011;53663;42.676;23.238;2023-07-29T04:06:14;12.23;;;6.30;;
66751;SDS011;53663;42.676;23.238;2023-07-29T04:08:40;14.13;;;5.85;;
66751;SDS011;53663;42.676;23.238;2023-07-29T04:11:06;15.50;;;5.90;;
66751;SDS011;53663;42.676;23.238;2023-07-29T04:13:33;13.13;;;5.45;;
66751;SDS011;53663;42.676;23.238;2023-07-29T04:15:59;11.75;;;4.75;;
66751;SDS011;53663;42.676;23.238;2023-07-29T04:18:24;10.38;;;4.50;;
66751;SDS011;53663;42.676;23.238;2023-07-29T04:20:50;9.77;;;4.13;;
66751;SDS011;53663;42.676;23.238;2023-07-29T04:23:15;9.82;;;4.25;;
66751;SDS011;53663;42.676;23.238;2023-07-29T04:25:41;6.95;;;4.38;;
66751;SDS011;53663;42.676;23.238;2023-07-29T04:28:06;13.95;;;4.03;;
66751;SDS011;53663;42.676;23.238;2023-07-29T04:30:32;8.73;;;3.45;;
66751;SDS011;53663;42.676;23.238;2023-07-29T04:32:57;7.18;;;4.03;;
66751;SDS011;53663;42.676;23.238;2023-07-29T04:35:23;7.65;;;3.63;;
66751;SDS011;53663;42.676;23.238;2023-07-29T04:37:48;6.60;;;3.83;;
66751;SDS011;53663;42.676;23.238;2023-07-29T04:40:14;7.63;;;3.85;;
66751;SDS011;53663;42.676;23.238;2023-07-29T04:42:40;8.68;;;4.00;;
66751;SDS011;53663;42.676;23.238;2023-07-29T04:45:05;6.80;;;3.60;;
66751;SDS011;53663;42.676;23.238;2023-07-29T04:47:32;5.60;;;3.60;;
66751;SDS011;53663;42.676;23.238;2023-07-29T04:49:57;9.07;;;3.50;;
66751;SDS011;53663;42.676;23.238;2023-07-29T04:52:23;6.20;;;4.25;;
66751;SDS011;53663;42.676;23.238;2023-07-29T04:54:48;8.32;;;4.38;;
66751;SDS011;53663;42.676;23.238;2023-07-29T04:57:14;11.13;;;4.50;;
66751;SDS011;53663;42.676;23.238;2023-07-29T04:59:39;7.95;;;3.70;;
66751;SDS011;53663;42.676;23.238;2023-07-29T05:02:05;8.57;;;3.70;;
66751;SDS011;53663;42.676;23.238;2023-07-29T05:04:30;7.10;;;3.67;;
66751;SDS011;53663;42.676;23.238;2023-07-29T05:06:56;5.43;;;3.40;;
66751;SDS011;53663;42.676;23.238;2023-07-29T05:09:22;7.32;;;3.70;;
66751;SDS011;53663;42.676;23.238;2023-07-29T05:11:47;7.03;;;3.55;;
66751;SDS011;53663;42.676;23.238;2023-07-29T05:14:15;12.15;;;3.80;;
66751;SDS011;53663;42.676;23.238;2023-07-29T05:16:41;7.18;;;3.70;;
66751;SDS011;53663;42.676;23.238;2023-07-29T05:19:09;10.45;;;4.10;;
66751;SDS011;53663;42.676;23.238;2023-07-29T05:21:35;11.30;;;4.03;;
66751;SDS011;53663;42.676;23.238;2023-07-29T05:24:02;10.80;;;3.92;;
66751;SDS011;53663;42.676;23.238;2023-07-29T05:26:27;8.90;;;4.18;;
66751;SDS011;53663;42.676;23.238;2023-07-29T05:28:53;11.40;;;4.28;;
66751;SDS011;53663;42.676;23.238;2023-07-29T05:31:18;8.88;;;4.32;;
66751;SDS011;53663;42.676;23.238;2023-07-29T05:33:44;9.43;;;3.67;;
66751;SDS011;53663;42.676;23.238;2023-07-29T05:36:09;9.88;;;4.07;;
66751;SDS011;53663;42.676;23.238;2023-07-29T05:38:35;11.00;;;4.00;;
66751;SDS011;53663;42.676;23.238;2023-07-29T05:41:01;8.50;;;4.07;;
66751;SDS011;53663;42.676;23.238;2023-07-29T05:43:29;6.53;;;3.80;;
66751;SDS011;53663;42.676;23.238;2023-07-29T05:45:54;6.43;;;3.85;;
66751;SDS011;53663;42.676;23.238;2023-07-29T05:48:21;8.68;;;4.10;;
66751;SDS011;53663;42.676;23.238;2023-07-29T05:50:47;8.88;;;4.15;;
66751;SDS011;53663;42.676;23.238;2023-07-29T05:53:13;9.30;;;3.63;;
66751;SDS011;53663;42.676;23.238;2023-07-29T05:55:39;15.57;;;4.75;;
66751;SDS011;53663;42.676;23.238;2023-07-29T05:58:05;7.95;;;4.20;;
66751;SDS011;53663;42.676;23.238;2023-07-29T06:00:31;10.13;;;4.35;;
66751;SDS011;53663;42.676;23.238;2023-07-29T06:02:59;8.77;;;4.18;;
66751;SDS011;53663;42.676;23.238;2023-07-29T06:05:25;9.48;;;4.50;;
66751;SDS011;53663;42.676;23.238;2023-07-29T06:07:51;10.40;;;4.10;;
66751;SDS011;53663;42.676;23.238;2023-07-29T06:10:16;8.70;;;3.83;;
66751;SDS011;53663;42.676;23.238;2023-07-29T06:12:45;8.55;;;4.20;;
66751;SDS011;53663;42.676;23.238;2023-07-29T06:15:11;9.27;;;4.43;;
66751;SDS011;53663;42.676;23.238;2023-07-29T06:17:37;8.90;;;3.88;;
66751;SDS011;53663;42.676;23.238;2023-07-29T06:20:04;8.88;;;3.47;;
66751;SDS011;53663;42.676;23.238;2023-07-29T06:22:31;9.23;;;4.30;;
66751;SDS011;53663;42.676;23.238;2023-07-29T06:24:56;8.50;;;4.25;;
66751;SDS011;53663;42.676;23.238;2023-07-29T06:27:22;12.30;;;4.53;;
66751;SDS011;53663;42.676;23.238;2023-07-29T06:29:49;10.73;;;3.80;;
66751;SDS011;53663;42.676;23.238;2023-07-29T06:32:15;6.53;;;3.67;;
66751;SDS011;53663;42.676;23.238;2023-07-29T06:34:40;9.35;;;3.58;;
66751;SDS011;53663;42.676;23.238;2023-07-29T06:37:06;7.57;;;3.88;;
66751;SDS011;53663;42.676;23.238;2023-07-29T06:39:32;10.32;;;4.47;;
66751;SDS011;53663;42.676;23.238;2023-07-29T06:41:57;11.02;;;4.30;;
66751;SDS011;53663;42.676;23.238;2023-07-29T06:44:23;11.80;;;3.63;;
66751;SDS011;53663;42.676;23.238;2023-07-29T06:46:48;10.82;;;3.80;;
66751;SDS011;53663;42.676;23.238;2023-07-29T06:49:14;7.38;;;4.05;;
66751;SDS011;53663;42.676;23.238;2023-07-29T06:51:39;11.18;;;3.40;;
66751;SDS011;53663;42.676;23.238;2023-07-29T06:54:05;7.40;;;3.97;;
66751;SDS011;53663;42.676;23.238;2023-07-29T06:56:31;7.65;;;3.75;;
66751;SDS011;53663;42.676;23.238;2023-07-29T06:58:57;5.63;;;3.40;;
66751;SDS011;53663;42.676;23.238;2023-07-29T07:01:22;11.15;;;3.90;;
66751;SDS011;53663;42.676;23.238;2023-07-29T07:03:48;7.90;;;3.80;;
66751;SDS011;53663;42.676;23.238;2023-07-29T07:06:13;7.68;;;3.67;;
66751;SDS011;53663;42.676;23.238;2023-07-29T07:08:39;5.88;;;3.13;;
66751;SDS011;53663;42.676;23.238;2023-07-29T07:11:06;6.47;;;3.65;;
66751;SDS011;53663;42.676;23.238;2023-07-29T07:13:32;4.60;;;3.50;;
66751;SDS011;53663;42.676;23.238;2023-07-29T07:15:58;7.07;;;3.45;;
66751;SDS011;53663;42.676;23.238;2023-07-29T07:18:24;13.43;;;5.55;;
66751;SDS011;53663;42.676;23.238;2023-07-29T07:20:49;14.88;;;6.40;;
66751;SDS011;53663;42.676;23.238;2023-07-29T07:23:15;16.30;;;8.00;;
66751;SDS011;53663;42.676;23.238;2023-07-29T07:25:41;23.83;;;12.40;;
66751;SDS011;53663;42.676;23.238;2023-07-29T07:28:08;14.68;;;5.35;;
66751;SDS011;53663;42.676;23.238;2023-07-29T07:30:34;9.23;;;4.22;;
66751;SDS011;53663;42.676;23.238;2023-07-29T07:32:59;19.52;;;8.32;;
66751;SDS011;53663;42.676;23.238;2023-07-29T07:35:25;18.33;;;7.57;;
66751;SDS011;53663;42.676;23.238;2023-07-29T07:37:50;30.67;;;16.95;;
66751;SDS011;53663;42.676;23.238;2023-07-29T07:40:16;10.48;;;5.78;;
66751;SDS011;53663;42.676;23.238;2023-07-29T07:42:41;44.63;;;19.02;;
66751;SDS011;53663;42.676;23.238;2023-07-29T07:45:07;16.60;;;8.00;;
66751;SDS011;53663;42.676;23.238;2023-07-29T07:47:32;15.75;;;5.72;;
66751;SDS011;53663;42.676;23.238;2023-07-29T07:49:58;7.38;;;4.80;;
66751;SDS011;53663;42.676;23.238;2023-07-29T07:52:23;11.20;;;4.20;;
66751;SDS011;53663;42.676;23.238;2023-07-29T07:54:52;10.60;;;3.95;;
66751;SDS011;53663;42.676;23.238;2023-07-29T07:57:19;12.80;;;4.07;;
66751;SDS011;53663;42.676;23.238;2023-07-29T07:59:45;6.85;;;4.03;;
66751;SDS011;53663;42.676;23.238;2023-07-29T08:02:11;18.90;;;10.40;;
66751;SDS011;53663;42.676;23.238;2023-07-29T08:04:36;13.52;;;6.97;;
66751;SDS011;53663;42.676;23.238;2023-07-29T08:07:02;7.15;;;3.70;;
66751;SDS011;53663;42.676;23.238;2023-07-29T08:09:27;17.42;;;9.45;;
66751;SDS011;53663;42.676;23.238;2023-07-29T08:11:53;10.70;;;4.40;;
66751;SDS011;53663;42.676;23.238;2023-07-29T08:14:18;6.18;;;3.55;;
66751;SDS011;53663;42.676;23.238;2023-07-29T08:16:44;5.88;;;3.65;;
66751;SDS011;53663;42.676;23.238;2023-07-29T08:19:09;6.50;;;3.90;;
66751;SDS011;53663;42.676;23.238;2023-07-29T08:21:35;6.43;;;3.60;;
66751;SDS011;53663;42.676;23.238;2023-07-29T08:24:01;10.85;;;3.70;;
66751;SDS011;53663;42.676;23.238;2023-07-29T08:26:27;17.77;;;3.63;;
66751;SDS011;53663;42.676;23.238;2023-07-29T08:28:52;24.38;;;6.80;;
66751;SDS011;53663;42.676;23.238;2023-07-29T08:31:18;8.02;;;3.42;;
66751;SDS011;53663;42.676;23.238;2023-07-29T08:33:46;5.28;;;2.92;;
66751;SDS011;53663;42.676;23.238;2023-07-29T08:36:11;5.60;;;3.75;;
66751;SDS011;53663;42.676;23.238;2023-07-29T08:38:37;14.30;;;7.60;;
66751;SDS011;53663;42.676;23.238;2023-07-29T08:43:38;11.60;;;4.25;;
66751;SDS011;53663;42.676;23.238;2023-07-29T08:46:05;5.30;;;3.15;;
66751;SDS011;53663;42.676;23.238;2023-07-29T08:51:08;6.57;;;3.28;;
66751;SDS011;53663;42.676;23.238;2023-07-29T08:53:34;5.68;;;3.38;;
66751;SDS011;53663;42.676;23.238;2023-07-29T08:56:01;5.82;;;2.75;;
66751;SDS011;53663;42.676;23.238;2023-07-29T08:58:27;6.43;;;3.50;;
66751;SDS011;53663;42.676;23.238;2023-07-29T09:00:52;8.45;;;3.13;;
66751;SDS011;53663;42.676;23.238;2023-07-29T09:03:19;8.68;;;3.90;;
66751;SDS011;53663;42.676;23.238;2023-07-29T09:05:45;7.65;;;3.53;;
66751;SDS011;53663;42.676;23.238;2023-07-29T09:08:11;4.72;;;2.92;;
66751;SDS011;53663;42.676;23.238;2023-07-29T09:10:37;4.90;;;2.88;;
66751;SDS011;53663;42.676;23.238;2023-07-29T09:13:03;3.72;;;2.47;;
66751;SDS011;53663;42.676;23.238;2023-07-29T09:15:30;8.40;;;2.50;;
66751;SDS011;53663;42.676;23.238;2023-07-29T09:17:56;4.57;;;2.58;;
66751;SDS011;53663;42.676;23.238;2023-07-29T09:20:23;3.50;;;2.58;;
66751;SDS011;53663;42.676;23.238;2023-07-29T09:22:57;3.30;;;2.45;;
66751;SDS011;53663;42.676;23.238;2023-07-29T09:25:25;4.47;;;2.30;;
66751;SDS011;53663;42.676;23.238;2023-07-29T09:27:52;3.05;;;2.47;;
66751;SDS011;53663;42.676;23.238;2023-07-29T09:30:18;7.38;;;2.55;;
66751;SDS011;53663;42.676;23.238;2023-07-29T09:32:43;4.38;;;2.17;;
66751;SDS011;53663;42.676;23.238;2023-07-29T09:35:10;3.92;;;2.30;;
66751;SDS011;53663;42.676;23.238;2023-07-29T09:37:37;2.72;;;2.20;;
66751;SDS011;53663;42.676;23.238;2023-07-29T09:40:03;2.75;;;2.20;;
66751;SDS011;53663;42.676;23.238;2023-07-29T09:42:30;2.15;;;1.95;;
66751;SDS011;53663;42.676;23.238;2023-07-29T09:44:56;12.25;;;2.20;;
66751;SDS011;53663;42.676;23.238;2023-07-29T09:47:25;8.00;;;1.92;;
66751;SDS011;53663;42.676;23.238;2023-07-29T09:49:52;3.58;;;2.00;;
66751;SDS011;53663;42.676;23.238;2023-07-29T09:52:21;9.45;;;2.50;;
66751;SDS011;53663;42.676;23.238;2023-07-29T09:57:14;3.85;;;2.13;;
66751;SDS011;53663;42.676;23.238;2023-07-29T09:59:41;8.50;;;1.90;;
66751;SDS011;53663;42.676;23.238;2023-07-29T10:02:08;2.67;;;2.00;;
66751;SDS011;53663;42.676;23.238;2023-07-29T10:04:41;3.78;;;2.00;;
66751;SDS011;53663;42.676;23.238;2023-07-29T10:07:08;3.15;;;1.80;;
66751;SDS011;53663;42.676;23.238;2023-07-29T10:09:36;3.83;;;1.70;;
66751;SDS011;53663;42.676;23.238;2023-07-29T10:12:03;2.88;;;2.05;;
66751;SDS011;53663;42.676;23.238;2023-07-29T10:14:31;1.77;;;1.63;;
66751;SDS011;53663;42.676;23.238;2023-07-29T10:16:57;4.78;;;2.00;;
66751;SDS011;53663;42.676;23.238;2023-07-29T10:19:24;2.00;;;1.83;;
66751;SDS011;53663;42.676;23.238;2023-07-29T10:21:53;2.10;;;1.90;;
66751;SDS011;53663;42.676;23.238;2023-07-29T10:24:24;1.35;;;1.25;;
66751;SDS011;53663;42.676;23.238;2023-07-29T10:26:55;3.25;;;1.52;;
66751;SDS011;53663;42.676;23.238;2023-07-29T10:29:23;1.30;;;1.20;;
66751;SDS011;53663;42.676;23.238;2023-07-29T10:31:50;3.05;;;1.27;;
66751;SDS011;53663;42.676;23.238;2023-07-29T10:34:18;1.17;;;1.07;;
66751;SDS011;53663;42.676;23.238;2023-07-29T10:36:46;1.85;;;1.13;;
66751;SDS011;53663;42.676;23.238;2023-07-29T10:39:13;2.08;;;1.40;;
66751;SDS011;53663;42.676;23.238;2023-07-29T10:47:11;3.13;;;1.50;;
66751;SDS011;53663;42.676;23.238;2023-07-29T10:49:55;3.50;;;2.00;;
66751;SDS011;53663;42.676;23.238;2023-07-29T10:52:37;4.18;;;1.80;;
66751;SDS011;53663;42.676;23.238;2023-07-29T10:55:22;5.30;;;1.90;;
66751;SDS011;53663;42.676;23.238;2023-07-29T10:58:08;2.38;;;1.75;;
66751;SDS011;53663;42.676;23.238;2023-07-29T11:00:36;6.53;;;2.28;;
66751;SDS011;53663;42.676;23.238;2023-07-29T11:03:06;2.22;;;1.77;;
66751;SDS011;53663;42.676;23.238;2023-07-29T11:08:18;1.92;;;1.60;;
66751;SDS011;53663;42.676;23.238;2023-07-29T11:10:57;4.40;;;1.90;;
66751;SDS011;53663;42.676;23.238;2023-07-29T11:13:31;4.72;;;1.88;;
66751;SDS011;53663;42.676;23.238;2023-07-29T11:15:58;3.15;;;1.90;;
66751;SDS011;53663;42.676;23.238;2023-07-29T11:18:27;4.13;;;1.75;;
66751;SDS011;53663;42.676;23.238;2023-07-29T11:20:55;3.13;;;2.00;;
66751;SDS011;53663;42.676;23.238;2023-07-29T11:23:26;5.30;;;1.60;;
66751;SDS011;53663;42.676;23.238;2023-07-29T11:25:54;2.55;;;1.80;;
66751;SDS011;53663;42.676;23.238;2023-07-29T11:28:20;1.65;;;1.55;;
66751;SDS011;53663;42.676;23.238;2023-07-29T11:30:47;2.45;;;1.50;;
66751;SDS011;53663;42.676;23.238;2023-07-29T11:33:14;1.95;;;1.58;;
66751;SDS011;53663;42.676;23.238;2023-07-29T11:35:49;4.05;;;1.50;;
66751;SDS011;53663;42.676;23.238;2023-07-29T11:38:15;3.60;;;1.50;;
66751;SDS011;53663;42.676;23.238;2023-07-29T11:40:42;2.50;;;1.85;;
66751;SDS011;53663;42.676;23.238;2023-07-29T11:43:07;1.80;;;1.60;;
66751;SDS011;53663;42.676;23.238;2023-07-29T11:45:33;2.97;;;1.42;;
66751;SDS011;53663;42.676;23.238;2023-07-29T11:48:00;2.08;;;1.80;;
66751;SDS011;53663;42.676;23.238;2023-07-29T11:50:26;3.42;;;2.00;;
66751;SDS011;53663;42.676;23.238;2023-07-29T11:52:52;3.17;;;1.73;;
66751;SDS011;53663;42.676;23.238;2023-07-29T11:55:18;1.58;;;1.48;;
66751;SDS011;53663;42.676;23.238;2023-07-29T11:57:44;1.67;;;1.58;;
66751;SDS011;53663;42.676;23.238;2023-07-29T12:00:16;5.75;;;2.00;;
66751;SDS011;53663;42.676;23.238;2023-07-29T12:02:43;2.50;;;1.60;;
66751;SDS011;53663;42.676;23.238;2023-07-29T12:05:10;1.73;;;1.50;;
66751;SDS011;53663;42.676;23.238;2023-07-29T12:07:38;2.47;;;1.95;;
66751;SDS011;53663;42.676;23.238;2023-07-29T12:10:04;6.68;;;1.90;;
66751;SDS011;53663;42.676;23.238;2023-07-29T12:12:30;2.38;;;1.92;;
66751;SDS011;53663;42.676;23.238;2023-07-29T12:14:56;4.03;;;1.95;;
66751;SDS011;53663;42.676;23.238;2023-07-29T12:17:22;12.82;;;1.90;;
66751;SDS011;53663;42.676;23.238;2023-07-29T12:19:48;2.00;;;1.80;;
66751;SDS011;53663;42.676;23.238;2023-07-29T12:22:17;3.15;;;1.88;;
66751;SDS011;53663;42.676;23.238;2023-07-29T12:24:43;1.92;;;1.80;;
66751;SDS011;53663;42.676;23.238;2023-07-29T12:27:12;2.45;;;1.65;;
66751;SDS011;53663;42.676;23.238;2023-07-29T12:29:42;1.85;;;1.73;;
66751;SDS011;53663;42.676;23.238;2023-07-29T12:34:35;2.38;;;1.88;;
66751;SDS011;53663;42.676;23.238;2023-07-29T12:37:03;7.95;;;1.75;;
66751;SDS011;53663;42.676;23.238;2023-07-29T12:39:30;2.10;;;1.60;;
66751;SDS011;53663;42.676;23.238;2023-07-29T12:41:58;2.35;;;1.70;;
66751;SDS011;53663;42.676;23.238;2023-07-29T12:44:25;2.40;;;1.70;;
66751;SDS011;53663;42.676;23.238;2023-07-29T12:46:52;1.85;;;1.67;;
66751;SDS011;53663;42.676;23.238;2023-07-29T12:49:18;4.40;;;1.80;;
66751;SDS011;53663;42.676;23.238;2023-07-29T12:51:43;2.42;;;1.65;;
66751;SDS011;53663;42.676;23.238;2023-07-29T12:54:09;2.20;;;1.88;;
66751;SDS011;53663;42.676;23.238;2023-07-29T12:56:35;1.92;;;1.77;;
66751;SDS011;53663;42.676;23.238;2023-07-29T12:59:01;3.00;;;1.83;;
66751;SDS011;53663;42.676;23.238;2023-07-29T13:01:27;1.70;;;1.60;;
66751;SDS011;53663;42.676;23.238;2023-07-29T13:03:53;1.95;;;1.60;;
66751;SDS011;53663;42.676;23.238;2023-07-29T13:06:20;3.38;;;1.88;;
66751;SDS011;53663;42.676;23.238;2023-07-29T13:08:46;5.13;;;1.73;;
66751;SDS011;53663;42.676;23.238;2023-07-29T13:11:12;1.80;;;1.70;;
66751;SDS011;53663;42.676;23.238;2023-07-29T13:13:37;2.17;;;1.70;;
66751;SDS011;53663;42.676;23.238;2023-07-29T13:16:03;2.95;;;1.80;;
66751;SDS011;53663;42.676;23.238;2023-07-29T13:18:29;2.35;;;1.80;;
66751;SDS011;53663;42.676;23.238;2023-07-29T13:20:55;2.95;;;1.70;;
66751;SDS011;53663;42.676;23.238;2023-07-29T13:23:21;2.78;;;1.83;;
66751;SDS011;53663;42.676;23.238;2023-07-29T13:25:46;1.88;;;1.70;;
66751;SDS011;53663;42.676;23.238;2023-07-29T13:28:12;2.03;;;1.85;;
66751;SDS011;53663;42.676;23.238;2023-07-29T13:30:38;5.28;;;1.88;;
66751;SDS011;53663;42.676;23.238;2023-07-29T13:33:05;3.03;;;2.10;;
66751;SDS011;53663;42.676;23.238;2023-07-29T13:35:31;5.50;;;1.90;;
66751;SDS011;53663;42.676;23.238;2023-07-29T13:37:57;8.43;;;2.20;;
66751;SDS011;53663;42.676;23.238;2023-07-29T13:40:23;9.95;;;2.95;;
66751;SDS011;53663;42.676;23.238;2023-07-29T13:42:48;5.07;;;3.20;;
66751;SDS011;53663;42.676;23.238;2023-07-29T13:45:14;3.05;;;2.25;;
66751;SDS011;53663;42.676;23.238;2023-07-29T13:47:39;6.03;;;2.28;;
66751;SDS011;53663;42.676;23.238;2023-07-29T13:50:05;5.18;;;2.65;;
66751;SDS011;53663;42.676;23.238;2023-07-29T13:52:33;4.18;;;2.58;;
66751;SDS011;53663;42.676;23.238;2023-07-29T13:54:59;5.07;;;2.38;;
66751;SDS011;53663;42.676;23.238;2023-07-29T13:57:24;4.65;;;2.40;;
66751;SDS011;53663;42.676;23.238;2023-07-29T13:59:50;6.13;;;2.50;;
66751;SDS011;53663;42.676;23.238;2023-07-29T14:02:15;4.90;;;2.63;;
66751;SDS011;53663;42.676;23.238;2023-07-29T14:04:41;5.63;;;2.95;;
66751;SDS011;53663;42.676;23.238;2023-07-29T14:07:06;4.00;;;2.53;;
66751;SDS011;53663;42.676;23.238;2023-07-29T14:09:32;4.32;;;2.90;;
66751;SDS011;53663;42.676;23.238;2023-07-29T14:11:57;5.28;;;2.70;;
66751;SDS011;53663;42.676;23.238;2023-07-29T14:14:23;5.75;;;2.85;;
66751;SDS011;53663;42.676;23.238;2023-07-29T14:16:49;4.38;;;2.65;;
66751;SDS011;53663;42.676;23.238;2023-07-29T14:19:14;8.73;;;2.50;;
66751;SDS011;53663;42.676;23.238;2023-07-29T14:21:40;11.27;;;2.90;;
66751;SDS011;53663;42.676;23.238;2023-07-29T14:24:06;12.68;;;2.80;;
66751;SDS011;53663;42.676;23.238;2023-07-29T14:26:31;14.25;;;3.00;;
66751;SDS011;53663;42.676;23.238;2023-07-29T14:28:57;5.53;;;2.45;;
66751;SDS011;53663;42.676;23.238;2023-07-29T14:31:23;2.83;;;2.20;;
66751;SDS011;53663;42.676;23.238;2023-07-29T14:33:48;6.97;;;2.45;;
66751;SDS011;53663;42.676;23.238;2023-07-29T14:36:17;5.68;;;2.78;;
66751;SDS011;53663;42.676;23.238;2023-07-29T14:38:42;6.38;;;2.30;;
66751;SDS011;53663;42.676;23.238;2023-07-29T14:41:18;4.68;;;2.20;;
66751;SDS011;53663;42.676;23.238;2023-07-29T14:43:44;7.88;;;2.30;;
66751;SDS011;53663;42.676;23.238;2023-07-29T14:46:10;7.13;;;3.63;;
66751;SDS011;53663;42.676;23.238;2023-07-29T14:48:35;6.30;;;3.58;;
66751;SDS011;53663;42.676;23.238;2023-07-29T14:51:01;9.95;;;7.07;;